sensor_id;sensor_type;location;lat;lon;timestamp;pressure;altitude;pressure_sealevel;temperature;humidity
40918;BME280;26644;50.248;19.032;2022-07-12T00:02:15;98492.41;;;11.61;88.51
40918;BME280;26644;50.248;19.032;2022-07-12T00:05:17;98495.69;;;11.63;88.95
40918;BME280;26644;50.248;19.032;2022-07-12T00:08:20;98496.50;;;11.64;88.75
40918;BME280;26644;50.248;19.032;2022-07-12T00:11:22;98477.88;;;11.50;88.91
40918;BME280;26644;50.248;19.032;2022-07-12T00:14:24;98468.06;;;11.39;88.77
40918;BME280;26644;50.248;19.032;2022-07-12T00:17:26;98502.53;;;11.66;88.98
40918;BME280;26644;50.248;19.032;2022-07-12T00:20:28;98475.16;;;11.45;89.14
40918;BME280;26644;50.248;19.032;2022-07-12T00:23:31;98515.16;;;11.72;89.59
40918;BME280;26644;50.248;19.032;2022-07-12T00:26:33;98508.53;;;11.73;89.52
40918;BME280;26644;50.248;19.032;2022-07-12T00:29:35;98507.44;;;11.74;89.62
40918;BME280;26644;50.248;19.032;2022-07-12T00:32:37;98494.56;;;11.69;89.53
40918;BME280;26644;50.248;19.032;2022-07-12T00:35:39;98511.84;;;11.75;89.51
40918;BME280;26644;50.248;19.032;2022-07-12T00:38:42;98504.38;;;11.75;89.78
40918;BME280;26644;50.248;19.032;2022-07-12T00:41:47;98524.47;;;11.81;89.23
40918;BME280;26644;50.248;19.032;2022-07-12T00:44:49;98519.25;;;11.80;89.41
40918;BME280;26644;50.248;19.032;2022-07-12T00:47:52;98530.47;;;11.83;89.42
40918;BME280;26644;50.248;19.032;2022-07-12T00:50:54;98521.41;;;11.83;89.46
40918;BME280;26644;50.248;19.032;2022-07-12T00:53:57;98514.56;;;11.80;89.41
40918;BME280;26644;50.248;19.032;2022-07-12T00:57:00;98518.94;;;11.81;89.52
40918;BME280;26644;50.248;19.032;2022-07-12T01:00:05;98509.56;;;11.82;89.87
40918;BME280;26644;50.248;19.032;2022-07-12T01:03:07;98512.31;;;11.82;89.57
40918;BME280;26644;50.248;19.032;2022-07-12T01:06:10;98490.44;;;11.67;89.80
40918;BME280;26644;50.248;19.032;2022-07-12T01:09:13;98361.78;;;10.84;89.49
40918;BME280;26644;50.248;19.032;2022-07-12T01:12:15;98500.09;;;11.64;89.83
40918;BME280;26644;50.248;19.032;2022-07-12T01:15:18;98524.16;;;11.83;89.68
40918;BME280;26644;50.248;19.032;2022-07-12T01:18:22;98531.03;;;11.85;89.83
40918;BME280;26644;50.248;19.032;2022-07-12T01:21:26;98526.63;;;11.84;89.81
40918;BME280;26644;50.248;19.032;2022-07-12T01:24:33;98518.94;;;11.81;89.91
40918;BME280;26644;50.248;19.032;2022-07-12T01:27:37;98522.22;;;11.83;89.69
40918;BME280;26644;50.248;19.032;2022-07-12T01:30:40;98523.63;;;11.81;89.98
40918;BME280;26644;50.248;19.032;2022-07-12T01:33:42;98514.84;;;11.78;90.00
40918;BME280;26644;50.248;19.032;2022-07-12T01:36:44;98491.00;;;11.64;90.12
40918;BME280;26644;50.248;19.032;2022-07-12T01:39:50;98503.84;;;11.78;89.82
40918;BME280;26644;50.248;19.032;2022-07-12T01:42:52;98512.09;;;11.78;89.83
40918;BME280;26644;50.248;19.032;2022-07-12T01:45:55;98496.41;;;11.79;90.08
40918;BME280;26644;50.248;19.032;2022-07-12T01:48:57;98501.09;;;11.78;90.15
40918;BME280;26644;50.248;19.032;2022-07-12T01:51:59;98484.38;;;11.65;90.22
40918;BME280;26644;50.248;19.032;2022-07-12T01:55:03;98498.94;;;11.70;90.04
40918;BME280;26644;50.248;19.032;2022-07-12T01:58:05;98445.81;;;11.35;90.37
40918;BME280;26644;50.248;19.032;2022-07-12T02:01:09;98498.13;;;11.70;90.23
40918;BME280;26644;50.248;19.032;2022-07-12T02:04:12;98449.94;;;11.38;89.98
40918;BME280;26644;50.248;19.032;2022-07-12T02:07:16;98489.09;;;11.64;90.26
40918;BME280;26644;50.248;19.032;2022-07-12T02:10:20;98494.59;;;11.64;90.12
40918;BME280;26644;50.248;19.032;2022-07-12T02:13:21;98495.69;;;11.63;90.26
40918;BME280;26644;50.248;19.032;2022-07-12T02:16:23;98493.75;;;11.64;90.59
40918;BME280;26644;50.248;19.032;2022-07-12T02:19:25;98499.25;;;11.64;90.33
40918;BME280;26644;50.248;19.032;2022-07-12T02:22:27;98486.06;;;11.60;90.11
40918;BME280;26644;50.248;19.032;2022-07-12T02:25:30;98355.22;;;10.75;89.49
40918;BME280;26644;50.248;19.032;2022-07-12T02:28:32;98476.28;;;11.44;89.66
40918;BME280;26644;50.248;19.032;2022-07-12T02:31:34;98464.81;;;11.26;89.84
40918;BME280;26644;50.248;19.032;2022-07-12T02:34:36;98493.34;;;11.36;89.79
40918;BME280;26644;50.248;19.032;2022-07-12T02:37:38;98484.88;;;11.32;90.14
40918;BME280;26644;50.248;19.032;2022-07-12T02:40:41;98462.16;;;11.11;90.07
40918;BME280;26644;50.248;19.032;2022-07-12T02:43:55;98500.84;;;11.25;90.28
40918;BME280;26644;50.248;19.032;2022-07-12T02:46:57;98506.03;;;11.26;90.13
40918;BME280;26644;50.248;19.032;2022-07-12T02:49:58;98507.16;;;11.25;90.54
40918;BME280;26644;50.248;19.032;2022-07-12T02:53:00;98493.22;;;11.11;90.35
40918;BME280;26644;50.248;19.032;2022-07-12T02:56:04;98507.16;;;11.25;90.82
40918;BME280;26644;50.248;19.032;2022-07-12T02:59:06;98503.03;;;11.28;90.78
40918;BME280;26644;50.248;19.032;2022-07-12T03:02:08;98507.69;;;11.27;90.71
40918;BME280;26644;50.248;19.032;2022-07-12T03:05:10;98446.84;;;10.94;90.82
40918;BME280;26644;50.248;19.032;2022-07-12T03:08:12;98510.44;;;11.27;90.91
40918;BME280;26644;50.248;19.032;2022-07-12T03:11:15;98477.88;;;11.05;90.71
40918;BME280;26644;50.248;19.032;2022-07-12T03:14:17;98512.09;;;11.28;90.66
40918;BME280;26644;50.248;19.032;2022-07-12T03:17:19;98511.28;;;11.28;90.88
40918;BME280;26644;50.248;19.032;2022-07-12T03:20:21;98511.28;;;11.28;91.04
40918;BME280;26644;50.248;19.032;2022-07-12T03:23:23;98507.69;;;11.27;91.12
40918;BME280;26644;50.248;19.032;2022-07-12T03:26:26;98491.25;;;11.17;91.04
40918;BME280;26644;50.248;19.032;2022-07-12T03:29:28;98468.22;;;11.08;91.26
40918;BME280;26644;50.248;19.032;2022-07-12T03:32:30;98479.16;;;11.18;91.07
40918;BME280;26644;50.248;19.032;2022-07-12T03:35:32;98483.25;;;11.26;91.34
40918;BME280;26644;50.248;19.032;2022-07-12T03:38:34;98374.78;;;10.63;91.18
40918;BME280;26644;50.248;19.032;2022-07-12T03:41:37;98506.75;;;11.53;91.44
40918;BME280;26644;50.248;19.032;2022-07-12T03:44:39;98510.31;;;11.58;91.52
40918;BME280;26644;50.248;19.032;2022-07-12T03:47:42;98515.75;;;11.64;91.30
40918;BME280;26644;50.248;19.032;2022-07-12T03:50:43;98485.59;;;11.53;91.25
40918;BME280;26644;50.248;19.032;2022-07-12T03:53:46;98522.53;;;11.76;91.33
40918;BME280;26644;50.248;19.032;2022-07-12T03:56:49;98520.56;;;11.82;91.10
40918;BME280;26644;50.248;19.032;2022-07-12T04:00:10;98498.38;;;11.73;91.01
40918;BME280;26644;50.248;19.032;2022-07-12T04:03:12;98523.00;;;11.89;90.98
40918;BME280;26644;50.248;19.032;2022-07-12T04:06:14;98517.25;;;11.90;91.00
40918;BME280;26644;50.248;19.032;2022-07-12T04:09:16;98392.41;;;11.07;90.46
40918;BME280;26644;50.248;19.032;2022-07-12T04:12:19;98512.00;;;11.89;90.51
40918;BME280;26644;50.248;19.032;2022-07-12T04:15:21;98518.31;;;11.94;90.60
40918;BME280;26644;50.248;19.032;2022-07-12T04:18:23;98501.75;;;12.05;91.41
40918;BME280;26644;50.248;19.032;2022-07-12T04:21:25;98471.28;;;11.91;90.36
40918;BME280;26644;50.248;19.032;2022-07-12T04:24:27;98520.41;;;12.13;90.27
40918;BME280;26644;50.248;19.032;2022-07-12T04:27:30;98500.06;;;12.09;90.23
40918;BME280;26644;50.248;19.032;2022-07-12T04:30:32;98513.97;;;12.23;90.73
40918;BME280;26644;50.248;19.032;2022-07-12T04:33:34;98514.69;;;12.34;90.72
40918;BME280;26644;50.248;19.032;2022-07-12T04:36:36;98513.81;;;12.43;90.66
40918;BME280;26644;50.248;19.032;2022-07-12T04:39:38;98518.44;;;12.48;90.06
40918;BME280;26644;50.248;19.032;2022-07-12T04:42:41;98485.97;;;12.45;90.95
40918;BME280;26644;50.248;19.032;2022-07-12T04:45:43;98515.78;;;12.91;91.75
40918;BME280;26644;50.248;19.032;2022-07-12T04:48:45;98513.38;;;13.09;89.80
40918;BME280;26644;50.248;19.032;2022-07-12T04:51:46;98522.69;;;13.13;89.24
40918;BME280;26644;50.248;19.032;2022-07-12T04:54:48;98517.03;;;13.28;91.10
40918;BME280;26644;50.248;19.032;2022-07-12T04:57:51;98522.56;;;14.05;92.23
40918;BME280;26644;50.248;19.032;2022-07-12T05:00:53;98517.50;;;14.78;90.24
40918;BME280;26644;50.248;19.032;2022-07-12T05:03:55;98509.41;;;15.51;88.73
40918;BME280;26644;50.248;19.032;2022-07-12T05:06:57;98534.38;;;15.97;84.30
40918;BME280;26644;50.248;19.032;2022-07-12T05:09:59;98524.94;;;15.75;82.29
40918;BME280;26644;50.248;19.032;2022-07-12T05:13:02;98530.09;;;15.54;83.07
40918;BME280;26644;50.248;19.032;2022-07-12T05:16:06;98524.66;;;15.21;82.63
40918;BME280;26644;50.248;19.032;2022-07-12T05:19:08;98517.88;;;14.99;83.07
40918;BME280;26644;50.248;19.032;2022-07-12T05:22:10;98514.50;;;15.16;85.12
40918;BME280;26644;50.248;19.032;2022-07-12T05:25:11;98512.78;;;15.85;84.72
40918;BME280;26644;50.248;19.032;2022-07-12T05:28:14;98528.38;;;16.63;83.02
40918;BME280;26644;50.248;19.032;2022-07-12T05:31:16;98529.06;;;17.49;81.55
40918;BME280;26644;50.248;19.032;2022-07-12T05:34:19;98527.13;;;17.84;78.10
40918;BME280;26644;50.248;19.032;2022-07-12T05:37:21;98531.06;;;18.09;76.57
40918;BME280;26644;50.248;19.032;2022-07-12T05:40:24;98526.97;;;17.89;75.98
40918;BME280;26644;50.248;19.032;2022-07-12T05:43:27;98533.81;;;17.66;75.29
40918;BME280;26644;50.248;19.032;2022-07-12T05:46:29;98513.41;;;17.53;75.30
40918;BME280;26644;50.248;19.032;2022-07-12T05:49:30;98514.88;;;18.03;75.53
40918;BME280;26644;50.248;19.032;2022-07-12T05:52:32;98532.00;;;18.75;74.12
40918;BME280;26644;50.248;19.032;2022-07-12T05:55:51;98530.09;;;19.44;72.92
40918;BME280;26644;50.248;19.032;2022-07-12T05:58:55;98527.06;;;20.00;70.63
40918;BME280;26644;50.248;19.032;2022-07-12T06:01:57;98541.97;;;20.25;68.69
40918;BME280;26644;50.248;19.032;2022-07-12T06:04:59;98535.94;;;20.23;67.85
40918;BME280;26644;50.248;19.032;2022-07-12T06:08:01;98530.59;;;20.09;66.94
40918;BME280;26644;50.248;19.032;2022-07-12T06:11:03;98534.44;;;19.54;67.35
40918;BME280;26644;50.248;19.032;2022-07-12T06:14:06;98517.56;;;18.82;68.05
40918;BME280;26644;50.248;19.032;2022-07-12T06:17:08;98503.25;;;18.53;68.86
40918;BME280;26644;50.248;19.032;2022-07-12T06:20:10;98521.94;;;19.00;68.98
40918;BME280;26644;50.248;19.032;2022-07-12T06:23:12;98534.94;;;19.56;68.16
40918;BME280;26644;50.248;19.032;2022-07-12T06:26:14;98531.28;;;20.15;67.12
40918;BME280;26644;50.248;19.032;2022-07-12T06:29:17;98536.59;;;20.75;65.76
40918;BME280;26644;50.248;19.032;2022-07-12T06:32:19;98536.31;;;21.26;64.80
40918;BME280;26644;50.248;19.032;2022-07-12T06:35:21;98511.28;;;21.67;63.77
40918;BME280;26644;50.248;19.032;2022-07-12T06:38:23;98533.03;;;22.27;62.85
40918;BME280;26644;50.248;19.032;2022-07-12T06:41:25;98536.31;;;22.57;61.09
40918;BME280;26644;50.248;19.032;2022-07-12T06:44:32;98513.97;;;22.89;60.78
40918;BME280;26644;50.248;19.032;2022-07-12T06:47:34;98537.41;;;23.29;59.32
40918;BME280;26644;50.248;19.032;2022-07-12T06:50:36;98513.97;;;23.21;59.54
40918;BME280;26644;50.248;19.032;2022-07-12T06:53:38;98537.00;;;23.62;59.13
40918;BME280;26644;50.248;19.032;2022-07-12T06:56:40;98527.81;;;24.17;57.28
40918;BME280;26644;50.248;19.032;2022-07-12T06:59:44;98533.00;;;24.15;55.59
40918;BME280;26644;50.248;19.032;2022-07-12T07:02:45;98541.72;;;24.29;55.22
40918;BME280;26644;50.248;19.032;2022-07-12T07:05:47;98548.91;;;24.50;54.63
40918;BME280;26644;50.248;19.032;2022-07-12T07:08:49;98533.28;;;24.29;54.50
40918;BME280;26644;50.248;19.032;2022-07-12T07:11:52;98554.31;;;24.19;54.89
40918;BME280;26644;50.248;19.032;2022-07-12T07:14:55;98547.53;;;24.60;54.58
40918;BME280;26644;50.248;19.032;2022-07-12T07:17:57;98547.84;;;24.97;53.84
40918;BME280;26644;50.248;19.032;2022-07-12T07:20:59;98558.31;;;25.47;52.04
40918;BME280;26644;50.248;19.032;2022-07-12T07:24:00;98561.69;;;25.56;50.26
40918;BME280;26644;50.248;19.032;2022-07-12T07:27:04;98550.97;;;25.62;50.18
40918;BME280;26644;50.248;19.032;2022-07-12T07:30:08;98551.53;;;25.24;49.79
40918;BME280;26644;50.248;19.032;2022-07-12T07:33:27;98544.22;;;24.34;50.29
40918;BME280;26644;50.248;19.032;2022-07-12T07:36:29;98551.31;;;23.41;50.87
40918;BME280;26644;50.248;19.032;2022-07-12T07:39:31;98556.47;;;23.39;51.39
40918;BME280;26644;50.248;19.032;2022-07-12T07:42:33;98544.94;;;24.12;50.22
40918;BME280;26644;50.248;19.032;2022-07-12T07:45:36;98546.94;;;24.70;49.69
40918;BME280;26644;50.248;19.032;2022-07-12T07:48:38;98558.91;;;25.33;48.60
40918;BME280;26644;50.248;19.032;2022-07-12T07:51:39;98556.72;;;25.72;47.61
40918;BME280;26644;50.248;19.032;2022-07-12T07:54:41;98569.56;;;25.47;47.20
40918;BME280;26644;50.248;19.032;2022-07-12T07:57:43;98563.16;;;24.80;47.26
40918;BME280;26644;50.248;19.032;2022-07-12T08:00:49;98556.16;;;25.13;46.74
40918;BME280;26644;50.248;19.032;2022-07-12T08:03:51;98556.75;;;25.99;46.55
40918;BME280;26644;50.248;19.032;2022-07-12T08:06:52;98555.59;;;26.34;44.99
40918;BME280;26644;50.248;19.032;2022-07-12T08:09:57;98561.06;;;25.20;44.83
40918;BME280;26644;50.248;19.032;2022-07-12T08:12:58;98564.78;;;24.03;46.18
40918;BME280;26644;50.248;19.032;2022-07-12T08:16:02;98554.34;;;23.04;46.49
40918;BME280;26644;50.248;19.032;2022-07-12T08:19:04;98550.69;;;22.43;48.37
40918;BME280;26644;50.248;19.032;2022-07-12T08:22:06;98564.41;;;22.20;48.66
40918;BME280;26644;50.248;19.032;2022-07-12T08:25:08;98550.28;;;21.75;48.60
40918;BME280;26644;50.248;19.032;2022-07-12T08:28:10;98548.06;;;21.32;49.49
40918;BME280;26644;50.248;19.032;2022-07-12T08:31:13;98552.09;;;20.97;49.95
40918;BME280;26644;50.248;19.032;2022-07-12T08:34:15;98552.69;;;20.57;51.04
40918;BME280;26644;50.248;19.032;2022-07-12T08:37:17;98501.06;;;19.96;51.76
40918;BME280;26644;50.248;19.032;2022-07-12T08:40:19;98550.09;;;19.88;52.27
40918;BME280;26644;50.248;19.032;2022-07-12T08:43:20;98521.94;;;19.39;53.00
40918;BME280;26644;50.248;19.032;2022-07-12T08:46:24;98547.38;;;19.20;53.74
40918;BME280;26644;50.248;19.032;2022-07-12T08:49:25;98546.34;;;18.95;54.77
40918;BME280;26644;50.248;19.032;2022-07-12T08:52:27;98557.66;;;18.81;54.86
40918;BME280;26644;50.248;19.032;2022-07-12T08:55:30;98564.34;;;18.80;55.35
40918;BME280;26644;50.248;19.032;2022-07-12T08:58:34;98554.94;;;19.10;56.04
40918;BME280;26644;50.248;19.032;2022-07-12T09:01:42;98534.09;;;19.55;55.98
40918;BME280;26644;50.248;19.032;2022-07-12T09:04:44;98560.22;;;20.90;55.87
40918;BME280;26644;50.248;19.032;2022-07-12T09:07:46;98549.88;;;22.14;54.11
40918;BME280;26644;50.248;19.032;2022-07-12T09:10:52;98557.34;;;22.95;51.84
40918;BME280;26644;50.248;19.032;2022-07-12T09:13:55;98549.97;;;23.51;51.62
40918;BME280;26644;50.248;19.032;2022-07-12T09:17:04;98551.72;;;23.75;50.48
40918;BME280;26644;50.248;19.032;2022-07-12T09:20:10;98554.63;;;23.47;49.50
40918;BME280;26644;50.248;19.032;2022-07-12T09:23:12;98554.88;;;23.09;49.84
40918;BME280;26644;50.248;19.032;2022-07-12T09:26:16;98552.53;;;22.80;49.94
40918;BME280;26644;50.248;19.032;2022-07-12T09:29:18;98557.97;;;22.32;49.97
40918;BME280;26644;50.248;19.032;2022-07-12T09:32:21;98546.19;;;21.73;50.57
40918;BME280;26644;50.248;19.032;2022-07-12T09:35:41;98552.94;;;21.22;51.48
40918;BME280;26644;50.248;19.032;2022-07-12T09:39:01;98547.19;;;20.82;51.91
40918;BME280;26644;50.248;19.032;2022-07-12T09:42:04;98546.97;;;20.53;52.44
40918;BME280;26644;50.248;19.032;2022-07-12T09:45:09;98530.56;;;20.39;52.20
40918;BME280;26644;50.248;19.032;2022-07-12T09:48:12;98535.81;;;20.87;52.15
40918;BME280;26644;50.248;19.032;2022-07-12T09:51:17;98542.28;;;21.49;51.17
40918;BME280;26644;50.248;19.032;2022-07-12T09:54:24;98540.25;;;21.62;50.09
40918;BME280;26644;50.248;19.032;2022-07-12T09:57:29;98520.72;;;21.25;51.09
40918;BME280;26644;50.248;19.032;2022-07-12T10:00:31;98537.91;;;20.90;51.74
40918;BME280;26644;50.248;19.032;2022-07-12T10:03:39;98577.63;;;20.20;52.31
40918;BME280;26644;50.248;19.032;2022-07-12T10:06:41;98592.00;;;18.93;53.42
40918;BME280;26644;50.248;19.032;2022-07-12T10:09:45;98563.69;;;17.51;56.14
40918;BME280;26644;50.248;19.032;2022-07-12T10:12:48;98571.88;;;16.62;58.67
40918;BME280;26644;50.248;19.032;2022-07-12T10:15:50;98568.06;;;16.13;61.40
40918;BME280;26644;50.248;19.032;2022-07-12T10:19:24;98564.16;;;15.77;64.12
40918;BME280;26644;50.248;19.032;2022-07-12T10:22:26;98565.81;;;15.64;64.96
40918;BME280;26644;50.248;19.032;2022-07-12T10:25:33;98558.25;;;16.29;67.52
40918;BME280;26644;50.248;19.032;2022-07-12T10:28:54;98552.00;;;17.32;66.35
40918;BME280;26644;50.248;19.032;2022-07-12T10:31:56;98552.25;;;17.62;65.55
40918;BME280;26644;50.248;19.032;2022-07-12T10:35:02;98548.22;;;17.76;64.86
40918;BME280;26644;50.248;19.032;2022-07-12T10:38:19;98545.31;;;17.99;65.53
40918;BME280;26644;50.248;19.032;2022-07-12T10:41:22;98541.47;;;18.74;65.87
40918;BME280;26644;50.248;19.032;2022-07-12T10:44:33;98542.41;;;19.64;64.97
40918;BME280;26644;50.248;19.032;2022-07-12T10:47:52;98540.06;;;20.38;63.18
40918;BME280;26644;50.248;19.032;2022-07-12T10:50:56;98541.06;;;21.01;63.58
40918;BME280;26644;50.248;19.032;2022-07-12T10:54:19;98512.13;;;21.42;61.59
40918;BME280;26644;50.248;19.032;2022-07-12T10:57:39;98536.88;;;21.94;61.21
40918;BME280;26644;50.248;19.032;2022-07-12T11:00:43;98538.94;;;21.97;61.44
40918;BME280;26644;50.248;19.032;2022-07-12T11:03:46;98533.88;;;21.74;60.84
40918;BME280;26644;50.248;19.032;2022-07-12T11:06:52;98531.66;;;21.55;60.15
40918;BME280;26644;50.248;19.032;2022-07-12T11:09:57;98523.41;;;21.34;59.42
40918;BME280;26644;50.248;19.032;2022-07-12T11:12:59;98508.63;;;21.21;59.50
40918;BME280;26644;50.248;19.032;2022-07-12T11:16:01;98509.41;;;20.84;58.80
40918;BME280;26644;50.248;19.032;2022-07-12T11:19:06;98498.00;;;20.31;59.56
40918;BME280;26644;50.248;19.032;2022-07-12T11:22:10;98504.13;;;20.03;59.21
40918;BME280;26644;50.248;19.032;2022-07-12T11:25:12;98510.75;;;19.90;59.29
40918;BME280;26644;50.248;19.032;2022-07-12T11:28:14;98505.28;;;20.02;58.74
40918;BME280;26644;50.248;19.032;2022-07-12T11:31:17;98496.34;;;20.09;57.81
40918;BME280;26644;50.248;19.032;2022-07-12T11:34:20;98496.44;;;20.21;57.28
40918;BME280;26644;50.248;19.032;2022-07-12T11:37:23;98498.81;;;20.32;57.25
40918;BME280;26644;50.248;19.032;2022-07-12T11:40:27;98498.09;;;20.35;56.82
40918;BME280;26644;50.248;19.032;2022-07-12T11:43:30;98455.56;;;20.04;56.08
40918;BME280;26644;50.248;19.032;2022-07-12T11:46:32;98485.22;;;20.09;55.92
40918;BME280;26644;50.248;19.032;2022-07-12T11:49:34;98482.16;;;20.02;55.84
40918;BME280;26644;50.248;19.032;2022-07-12T11:52:37;98472.59;;;19.90;55.44
40918;BME280;26644;50.248;19.032;2022-07-12T11:55:44;98482.84;;;19.99;55.59
40918;BME280;26644;50.248;19.032;2022-07-12T11:58:55;98473.78;;;20.02;55.12
40918;BME280;26644;50.248;19.032;2022-07-12T12:02:03;98456.69;;;19.91;55.02
40918;BME280;26644;50.248;19.032;2022-07-12T12:05:06;98474.28;;;20.04;54.79
40918;BME280;26644;50.248;19.032;2022-07-12T12:08:10;98451.94;;;19.91;54.93
40918;BME280;26644;50.248;19.032;2022-07-12T12:11:13;98465.97;;;19.95;54.82
40918;BME280;26644;50.248;19.032;2022-07-12T12:14:15;98466.81;;;19.96;55.23
40918;BME280;26644;50.248;19.032;2022-07-12T12:17:17;98456.00;;;19.94;54.90
40918;BME280;26644;50.248;19.032;2022-07-12T12:20:20;98450.69;;;20.01;54.02
40918;BME280;26644;50.248;19.032;2022-07-12T12:23:24;98451.19;;;20.03;53.33
40918;BME280;26644;50.248;19.032;2022-07-12T12:26:30;98440.09;;;19.95;52.76
40918;BME280;26644;50.248;19.032;2022-07-12T12:29:39;98455.84;;;20.12;52.51
40918;BME280;26644;50.248;19.032;2022-07-12T12:32:43;98446.31;;;20.34;52.76
40918;BME280;26644;50.248;19.032;2022-07-12T12:35:45;98456.34;;;20.47;52.25
40918;BME280;26644;50.248;19.032;2022-07-12T12:38:49;98450.84;;;20.51;52.21
40918;BME280;26644;50.248;19.032;2022-07-12T12:41:51;98453.91;;;20.58;51.70
40918;BME280;26644;50.248;19.032;2022-07-12T12:44:53;98453.13;;;20.70;51.29
40918;BME280;26644;50.248;19.032;2022-07-12T12:47:57;98432.31;;;20.80;50.73
40918;BME280;26644;50.248;19.032;2022-07-12T12:51:04;98425.13;;;21.03;50.01
40918;BME280;26644;50.248;19.032;2022-07-12T12:54:07;98452.44;;;21.35;49.57
40918;BME280;26644;50.248;19.032;2022-07-12T12:57:11;98459.91;;;21.31;48.84
40918;BME280;26644;50.248;19.032;2022-07-12T13:00:13;98469.44;;;21.05;48.85
40918;BME280;26644;50.248;19.032;2022-07-12T13:03:18;98466.72;;;20.71;49.13
40918;BME280;26644;50.248;19.032;2022-07-12T13:06:20;98469.56;;;20.50;50.43
40918;BME280;26644;50.248;19.032;2022-07-12T13:09:25;98465.72;;;20.42;50.74
40918;BME280;26644;50.248;19.032;2022-07-12T13:12:27;98464.91;;;20.42;50.77
40918;BME280;26644;50.248;19.032;2022-07-12T13:15:30;98481.22;;;20.52;50.25
40918;BME280;26644;50.248;19.032;2022-07-12T13:18:32;98472.38;;;20.63;50.60
40918;BME280;26644;50.248;19.032;2022-07-12T13:21:34;98471.59;;;20.62;50.23
40918;BME280;26644;50.248;19.032;2022-07-12T13:24:37;98463.78;;;20.55;50.05
40918;BME280;26644;50.248;19.032;2022-07-12T13:27:41;98466.22;;;20.57;49.79
40918;BME280;26644;50.248;19.032;2022-07-12T13:30:43;98461.22;;;20.63;50.05
40918;BME280;26644;50.248;19.032;2022-07-12T13:33:44;98465.66;;;20.76;50.04
40918;BME280;26644;50.248;19.032;2022-07-12T13:36:46;98455.22;;;20.85;50.04
40918;BME280;26644;50.248;19.032;2022-07-12T13:39:50;98463.63;;;20.98;49.22
40918;BME280;26644;50.248;19.032;2022-07-12T13:43:09;98474.31;;;20.96;47.42
40918;BME280;26644;50.248;19.032;2022-07-12T13:46:12;98476.09;;;21.00;49.33
40918;BME280;26644;50.248;19.032;2022-07-12T13:49:15;98471.66;;;20.99;49.17
40918;BME280;26644;50.248;19.032;2022-07-12T13:52:17;98472.00;;;20.98;49.14
40918;BME280;26644;50.248;19.032;2022-07-12T13:55:20;98475.94;;;21.09;49.29
40918;BME280;26644;50.248;19.032;2022-07-12T13:58:22;98480.38;;;21.10;49.20
40918;BME280;26644;50.248;19.032;2022-07-12T14:01:24;98482.59;;;21.17;49.15
40918;BME280;26644;50.248;19.032;2022-07-12T14:04:26;98471.19;;;21.22;49.17
40918;BME280;26644;50.248;19.032;2022-07-12T14:07:28;98472.81;;;21.23;49.29
40918;BME280;26644;50.248;19.032;2022-07-12T14:10:31;98472.94;;;21.14;48.58
40918;BME280;26644;50.248;19.032;2022-07-12T14:13:34;98467.13;;;21.07;48.12
40918;BME280;26644;50.248;19.032;2022-07-12T14:16:35;98459.91;;;21.06;48.13
40918;BME280;26644;50.248;19.032;2022-07-12T14:19:38;98471.19;;;21.09;47.70
40918;BME280;26644;50.248;19.032;2022-07-12T14:22:40;98451.75;;;21.13;47.72
40918;BME280;26644;50.248;19.032;2022-07-12T14:25:44;98462.22;;;21.29;47.51
40918;BME280;26644;50.248;19.032;2022-07-12T14:28:45;98457.13;;;21.31;46.98
40918;BME280;26644;50.248;19.032;2022-07-12T14:31:47;98456.41;;;21.34;46.67
40918;BME280;26644;50.248;19.032;2022-07-12T14:34:50;98457.56;;;21.33;46.67
40918;BME280;26644;50.248;19.032;2022-07-12T14:37:52;98454.53;;;21.38;46.40
40918;BME280;26644;50.248;19.032;2022-07-12T14:40:55;98445.13;;;21.42;46.47
40918;BME280;26644;50.248;19.032;2022-07-12T14:43:57;98445.56;;;21.45;46.42
40918;BME280;26644;50.248;19.032;2022-07-12T14:46:59;98439.16;;;21.44;46.46
40918;BME280;26644;50.248;19.032;2022-07-12T14:50:01;98435.78;;;21.51;46.34
40918;BME280;26644;50.248;19.032;2022-07-12T14:53:05;98426.72;;;21.41;46.55
40918;BME280;26644;50.248;19.032;2022-07-12T14:56:09;98402.41;;;21.42;46.45
40918;BME280;26644;50.248;19.032;2022-07-12T14:59:11;98429.72;;;21.61;46.47
40918;BME280;26644;50.248;19.032;2022-07-12T15:02:13;98426.53;;;21.75;46.36
40918;BME280;26644;50.248;19.032;2022-07-12T15:05:15;98419.78;;;21.76;46.20
40918;BME280;26644;50.248;19.032;2022-07-12T15:08:16;98419.78;;;21.64;45.89
40918;BME280;26644;50.248;19.032;2022-07-12T15:11:20;98434.38;;;21.45;45.88
40918;BME280;26644;50.248;19.032;2022-07-12T15:14:22;98433.25;;;21.33;46.21
40918;BME280;26644;50.248;19.032;2022-07-12T15:17:24;98433.94;;;21.30;46.43
40918;BME280;26644;50.248;19.032;2022-07-12T15:20:26;98441.28;;;21.22;46.57
40918;BME280;26644;50.248;19.032;2022-07-12T15:23:28;98438.50;;;21.22;46.40
40918;BME280;26644;50.248;19.032;2022-07-12T15:26:32;98437.56;;;21.18;46.76
40918;BME280;26644;50.248;19.032;2022-07-12T15:29:34;98429.44;;;21.25;47.09
40918;BME280;26644;50.248;19.032;2022-07-12T15:32:36;98430.91;;;21.35;47.18
40918;BME280;26644;50.248;19.032;2022-07-12T15:35:38;98427.31;;;21.35;47.37
40918;BME280;26644;50.248;19.032;2022-07-12T15:38:41;98407.34;;;21.20;47.62
40918;BME280;26644;50.248;19.032;2022-07-12T15:41:45;98430.78;;;21.32;47.72
40918;BME280;26644;50.248;19.032;2022-07-12T15:44:46;98434.31;;;21.29;48.00
40918;BME280;26644;50.248;19.032;2022-07-12T15:47:48;98417.78;;;21.23;47.84
40918;BME280;26644;50.248;19.032;2022-07-12T15:50:50;98433.13;;;21.17;47.44
40918;BME280;26644;50.248;19.032;2022-07-12T15:53:52;98421.53;;;21.03;47.45
40918;BME280;26644;50.248;19.032;2022-07-12T15:56:55;98439.44;;;21.02;47.17
40918;BME280;26644;50.248;19.032;2022-07-12T15:59:57;98421.28;;;20.83;47.18